Time;durP1;ratioP1;P1;durP2;ratioP2;P2;SDS_P1;SDS_P2;PMS_P1;PMS_P2;Temp;Humidity;BMP_temperature;BMP_pressure;BME280_temperature;BME280_humidity;BME280_pressure;Samples;Min_cycle;Max_cycle;Signal;HPM_P1;HPM_P2
2023/10/27 00:00:05;;;;;;;;;0.00;0.00;;;;;;;;5068016;28;8882;-83
2023/10/27 00:02:38;;;;;;;;;2.75;1.00;;;;;;;;5067240;28;9565;-84
2023/10/27 00:05:05;;;;;;;;;1.00;1.00;;;;;;;;5067570;28;9629;-84
2023/10/27 00:07:37;;;;;;;;;2.00;2.00;;;;;;;;5068266;28;9716;-84
2023/10/27 00:10:05;;;;;;;;;1.00;1.00;;;;;;;;5068225;28;8931;-84
2023/10/27 00:12:32;;;;;;;;;1.00;1.00;;;;;;;;5068161;28;8862;-84
2023/10/27 00:15:00;;;;;;;;;3.75;1.00;;;;;;;;5069437;28;8882;-84
2023/10/27 00:17:27;;;;;;;;;2.00;2.00;;;;;;;;5067584;28;8854;-84
2023/10/27 00:19:58;;;;;;;;;2.75;2.00;;;;;;;;5069163;28;8948;-80
2023/10/27 00:22:26;;;;;;;;;2.75;2.00;;;;;;;;5067697;28;8852;-83
2023/10/27 00:24:54;;;;;;;;;2.00;2.00;;;;;;;;5067958;28;8863;-83
2023/10/27 00:27:22;;;;;;;;;2.50;2.50;;;;;;;;5054640;28;8839;-84
2023/10/27 00:29:49;;;;;;;;;2.00;2.00;;;;;;;;5067212;28;8854;-84
2023/10/27 00:32:16;;;;;;;;;3.50;3.50;;;;;;;;5066057;28;8827;-83
2023/10/27 00:34:43;;;;;;;;;5.25;5.25;;;;;;;;5067834;28;8869;-81
2023/10/27 00:37:10;;;;;;;;;7.50;5.75;;;;;;;;5067517;28;8879;-83
2023/10/27 00:39:41;;;;;;;;;4.00;4.00;;;;;;;;5067702;28;8877;-81
2023/10/27 00:42:10;;;;;;;;;3.75;3.75;;;;;;;;5067535;28;8859;-82
2023/10/27 00:44:39;;;;;;;;;4.00;4.00;;;;;;;;5067548;28;9029;-83
2023/10/27 00:47:06;;;;;;;;;6.25;6.25;;;;;;;;5071674;28;8859;-82
2023/10/27 00:49:34;;;;;;;;;7.25;7.25;;;;;;;;5069700;28;9004;-81
2023/10/27 00:52:01;;;;;;;;;8.00;6.00;;;;;;;;5068361;28;8862;-82
2023/10/27 00:54:29;;;;;;;;;7.25;7.00;;;;;;;;5071368;28;8823;-82
2023/10/27 00:56:57;;;;;;;;;7.50;7.25;;;;;;;;5074916;28;8866;-82
2023/10/27 00:59:27;;;;;;;;;9.25;7.25;;;;;;;;5070195;28;8907;-82
2023/10/27 01:01:57;;;;;;;;;7.75;6.75;;;;;;;;5074287;28;8881;-82
2023/10/27 01:04:26;;;;;;;;;9.25;7.50;;;;;;;;5074002;28;8853;-82
2023/10/27 01:06:53;;;;;;;;;7.00;7.00;;;;;;;;5076398;28;8859;-83
2023/10/27 01:09:20;;;;;;;;;9.00;7.75;;;;;;;;5068876;28;8887;-82
2023/10/27 01:11:48;;;;;;;;;8.75;8.25;;;;;;;;5071506;28;8868;-82
2023/10/27 01:14:15;;;;;;;;;6.75;5.25;;;;;;;;5069224;28;8969;-85
2023/10/27 01:16:44;;;;;;;;;9.00;7.00;;;;;;;;5069391;28;9000;-85
2023/10/27 01:19:12;;;;;;;;;6.75;5.00;;;;;;;;5069068;28;8862;-82
2023/10/27 01:21:39;;;;;;;;;6.00;6.00;;;;;;;;5069952;28;9692;-83
2023/10/27 01:24:09;;;;;;;;;5.75;4.50;;;;;;;;5069410;28;8839;-83
2023/10/27 01:26:36;;;;;;;;;5.25;5.25;;;;;;;;5058218;28;9573;-83
2023/10/27 01:29:03;;;;;;;;;5.25;5.25;;;;;;;;5069925;28;8862;-83
2023/10/27 01:31:35;;;;;;;;;6.75;6.75;;;;;;;;5069745;28;8888;-83
2023/10/27 01:34:05;;;;;;;;;8.25;7.75;;;;;;;;5070403;28;8893;-83
2023/10/27 01:36:32;;;;;;;;;11.75;8.00;;;;;;;;5068573;28;9005;-84
2023/10/27 01:38:59;;;;;;;;;6.00;6.00;;;;;;;;5067704;28;8981;-84
2023/10/27 01:41:28;;;;;;;;;9.50;6.00;;;;;;;;5053767;28;9744;-82
2023/10/27 01:43:55;;;;;;;;;4.75;4.75;;;;;;;;5058103;28;8888;-84
2023/10/27 01:46:22;;;;;;;;;6.75;6.75;;;;;;;;5070927;28;9067;-83
2023/10/27 01:48:50;;;;;;;;;6.00;4.75;;;;;;;;5069167;28;8866;-84
2023/10/27 01:51:17;;;;;;;;;3.00;3.00;;;;;;;;5070023;28;8858;-84
2023/10/27 01:53:44;;;;;;;;;5.00;5.00;;;;;;;;5070476;28;8886;-85
2023/10/27 01:56:11;;;;;;;;;6.25;5.75;;;;;;;;5070259;28;8891;-84
2023/10/27 01:58:44;;;;;;;;;5.25;3.75;;;;;;;;5069591;28;8855;-84
2023/10/27 02:01:14;;;;;;;;;5.25;5.25;;;;;;;;5070204;28;8807;-84
2023/10/27 02:03:41;;;;;;;;;5.50;5.50;;;;;;;;5069663;28;8875;-84
2023/10/27 02:06:09;;;;;;;;;4.25;4.00;;;;;;;;5069386;28;8919;-83
2023/10/27 02:08:36;;;;;;;;;6.00;4.00;;;;;;;;5070105;28;8974;-83
2023/10/27 02:11:03;;;;;;;;;7.00;5.00;;;;;;;;5069275;28;8861;-82
2023/10/27 02:13:31;;;;;;;;;4.00;4.00;;;;;;;;5066708;28;8895;-83
2023/10/27 02:15:59;;;;;;;;;4.25;4.25;;;;;;;;5060934;28;8847;-82
2023/10/27 02:18:26;;;;;;;;;6.75;5.00;;;;;;;;5069235;28;9018;-80
2023/10/27 02:20:54;;;;;;;;;3.75;2.75;;;;;;;;5068321;28;8863;-82
2023/10/27 02:23:21;;;;;;;;;5.00;4.00;;;;;;;;5069737;28;8982;-82
2023/10/27 02:25:48;;;;;;;;;8.50;6.50;;;;;;;;5068471;28;8935;-82
2023/10/27 02:28:15;;;;;;;;;5.00;5.00;;;;;;;;5067866;28;8901;-82
2023/10/27 02:30:43;;;;;;;;;5.75;5.25;;;;;;;;5055861;28;9607;-82
2023/10/27 02:33:11;;;;;;;;;3.50;3.50;;;;;;;;5065163;28;8855;-82
2023/10/27 02:35:41;;;;;;;;;7.50;5.00;;;;;;;;5070284;28;8854;-82
2023/10/27 02:38:09;;;;;;;;;5.75;4.25;;;;;;;;5064705;28;8857;-83
2023/10/27 02:40:36;;;;;;;;;7.50;6.00;;;;;;;;5068189;28;8875;-82
2023/10/27 02:43:04;;;;;;;;;6.00;6.00;;;;;;;;5070095;28;8847;-81
2023/10/27 02:45:31;;;;;;;;;6.75;4.50;;;;;;;;5072918;28;8866;-82
2023/10/27 02:47:58;;;;;;;;;6.25;5.50;;;;;;;;5069792;28;9002;-81
2023/10/27 02:50:27;;;;;;;;;5.50;3.00;;;;;;;;5063808;28;8866;-81
2023/10/27 02:52:54;;;;;;;;;7.00;4.00;;;;;;;;5070342;28;8967;-82
2023/10/27 02:55:22;;;;;;;;;6.00;4.00;;;;;;;;5073879;28;8920;-83
2023/10/27 02:57:49;;;;;;;;;3.25;3.25;;;;;;;;5069430;28;8849;-83
2023/10/27 03:00:17;;;;;;;;;3.50;3.50;;;;;;;;5069077;28;8866;-84
2023/10/27 03:02:44;;;;;;;;;4.75;4.00;;;;;;;;5068904;28;8886;-84
2023/10/27 03:05:11;;;;;;;;;5.00;4.00;;;;;;;;5069103;28;8839;-84
2023/10/27 03:07:40;;;;;;;;;7.50;4.25;;;;;;;;5067459;28;8965;-82
2023/10/27 03:10:07;;;;;;;;;3.00;3.00;;;;;;;;5069265;28;8969;-84
2023/10/27 03:12:35;;;;;;;;;3.50;3.50;;;;;;;;5068485;28;8850;-84
2023/10/27 03:15:05;;;;;;;;;3.25;3.25;;;;;;;;5068612;28;9590;-83
2023/10/27 03:17:32;;;;;;;;;3.00;3.00;;;;;;;;5068605;28;8992;-84
2023/10/27 03:20:00;;;;;;;;;6.50;4.75;;;;;;;;5068379;28;8851;-83
2023/10/27 03:22:27;;;;;;;;;3.00;3.00;;;;;;;;5068503;28;8989;-84
2023/10/27 03:24:57;;;;;;;;;4.00;4.00;;;;;;;;5067257;28;8876;-81
2023/10/27 03:27:24;;;;;;;;;4.50;3.50;;;;;;;;5095178;28;8881;-85
2023/10/27 03:29:52;;;;;;;;;3.50;3.50;;;;;;;;5062146;28;8859;-84
2023/10/27 03:32:19;;;;;;;;;7.00;5.00;;;;;;;;5067878;28;8819;-84
2023/10/27 03:34:46;;;;;;;;;8.75;7.25;;;;;;;;5068264;28;8839;-83
2023/10/27 03:37:13;;;;;;;;;5.00;3.25;;;;;;;;5056807;28;8936;-83
2023/10/27 03:39:41;;;;;;;;;6.75;5.50;;;;;;;;5067259;28;9647;-83
2023/10/27 03:42:09;;;;;;;;;4.00;4.00;;;;;;;;5070791;28;8861;-83
2023/10/27 03:44:38;;;;;;;;;4.50;3.50;;;;;;;;5069247;28;8851;-83
2023/10/27 03:47:06;;;;;;;;;2.75;2.75;;;;;;;;5067659;28;8854;-85
2023/10/27 03:49:36;;;;;;;;;5.25;3.00;;;;;;;;5054186;28;8849;-83
2023/10/27 03:52:03;;;;;;;;;1.00;1.00;;;;;;;;5067883;28;8867;-83
2023/10/27 03:54:30;;;;;;;;;4.75;3.00;;;;;;;;5066169;28;8861;-84
2023/10/27 03:56:58;;;;;;;;;4.25;3.00;;;;;;;;5067187;28;8866;-82
2023/10/27 03:59:26;;;;;;;;;2.00;2.00;;;;;;;;5067950;28;8877;-83
2023/10/27 04:01:54;;;;;;;;;4.00;4.00;;;;;;;;5066890;28;8803;-82
2023/10/27 04:04:21;;;;;;;;;3.00;3.00;;;;;;;;5070234;28;8926;-82
2023/10/27 04:06:48;;;;;;;;;1.75;1.75;;;;;;;;5073473;28;9005;-84
2023/10/27 04:09:16;;;;;;;;;3.75;3.75;;;;;;;;5065153;28;9609;-85
2023/10/27 04:11:43;;;;;;;;;5.00;2.25;;;;;;;;5068440;28;8850;-83
2023/10/27 04:14:10;;;;;;;;;3.00;3.00;;;;;;;;5066701;28;8862;-83
2023/10/27 04:16:40;;;;;;;;;3.75;3.75;;;;;;;;5066506;28;9010;-81
2023/10/27 04:19:07;;;;;;;;;3.00;3.00;;;;;;;;5067521;28;8862;-82
2023/10/27 04:21:34;;;;;;;;;2.25;2.25;;;;;;;;5067913;28;8894;-82
2023/10/27 04:24:02;;;;;;;;;3.00;3.00;;;;;;;;5066960;28;8843;-82
2023/10/27 04:26:29;;;;;;;;;3.75;3.00;;;;;;;;5066785;28;8859;-81
2023/10/27 04:28:57;;;;;;;;;3.00;3.00;;;;;;;;5067428;28;8861;-81
2023/10/27 04:31:25;;;;;;;;;3.00;3.00;;;;;;;;5071803;28;8806;-81
2023/10/27 04:33:54;;;;;;;;;4.50;3.00;;;;;;;;5074430;28;8863;-82
2023/10/27 04:36:22;;;;;;;;;2.00;2.00;;;;;;;;5070784;28;8961;-81
2023/10/27 04:38:49;;;;;;;;;3.25;1.50;;;;;;;;5074263;28;8989;-81
2023/10/27 04:41:16;;;;;;;;;3.00;3.00;;;;;;;;5071058;28;8870;-81
2023/10/27 04:43:43;;;;;;;;;2.50;2.50;;;;;;;;5073248;28;8985;-81
2023/10/27 04:46:10;;;;;;;;;4.00;2.75;;;;;;;;5068710;28;8985;-82
2023/10/27 04:48:39;;;;;;;;;3.50;2.75;;;;;;;;5053269;28;8883;-82
2023/10/27 04:51:09;;;;;;;;;7.25;3.00;;;;;;;;5062768;28;8969;-80
2023/10/27 04:53:37;;;;;;;;;2.00;2.00;;;;;;;;5071113;28;8940;-81
2023/10/27 04:56:05;;;;;;;;;3.00;3.00;;;;;;;;5067948;28;8863;-81
2023/10/27 04:58:32;;;;;;;;;3.00;2.75;;;;;;;;5070631;28;9001;-81
2023/10/27 05:00:59;;;;;;;;;3.00;3.00;;;;;;;;5069742;28;8806;-81
2023/10/27 05:03:28;;;;;;;;;3.75;3.75;;;;;;;;5070898;28;8858;-82
2023/10/27 05:05:55;;;;;;;;;2.75;2.75;;;;;;;;5068446;28;8888;-80
2023/10/27 05:08:23;;;;;;;;;4.50;4.25;;;;;;;;5070574;28;8850;-81
2023/10/27 05:10:52;;;;;;;;;4.00;2.25;;;;;;;;5070229;28;8973;-79
2023/10/27 05:13:19;;;;;;;;;4.50;3.00;;;;;;;;5070350;28;8866;-76
2023/10/27 05:15:54;;;;;;;;;3.00;3.00;;;;;;;;5070131;28;9741;-77
2023/10/27 05:18:21;;;;;;;;;0.75;0.00;;;;;;;;5071037;28;8862;-86
2023/10/27 05:20:49;;;;;;;;;2.25;2.25;;;;;;;;5070374;28;8873;-78
2023/10/27 05:23:16;;;;;;;;;5.75;4.25;;;;;;;;5069943;28;8878;-80
2023/10/27 05:25:45;;;;;;;;;3.75;2.25;;;;;;;;5068055;28;8854;-78
2023/10/27 05:28:12;;;;;;;;;3.00;3.00;;;;;;;;5067868;28;9629;-79
2023/10/27 05:30:43;;;;;;;;;2.00;2.00;;;;;;;;5069844;28;8797;-77
2023/10/27 05:33:11;;;;;;;;;5.25;3.50;;;;;;;;5068376;28;8869;-77
2023/10/27 05:35:38;;;;;;;;;4.00;2.50;;;;;;;;5061053;28;8869;-78
2023/10/27 05:38:05;;;;;;;;;2.75;1.50;;;;;;;;5068522;28;8858;-81
2023/10/27 05:40:33;;;;;;;;;3.00;1.00;;;;;;;;5068780;28;8888;-79
2023/10/27 05:43:02;;;;;;;;;4.00;2.00;;;;;;;;5065794;28;8865;-77
2023/10/27 05:45:29;;;;;;;;;6.50;4.00;;;;;;;;5068748;28;8851;-77
2023/10/27 05:47:56;;;;;;;;;7.75;3.00;;;;;;;;5068069;28;8991;-76
2023/10/27 05:50:24;;;;;;;;;3.25;3.25;;;;;;;;5058191;28;8985;-76
2023/10/27 05:52:51;;;;;;;;;4.25;4.25;;;;;;;;5069019;28;8874;-77
2023/10/27 05:55:18;;;;;;;;;3.00;3.00;;;;;;;;5069545;28;8942;-76
2023/10/27 05:57:45;;;;;;;;;5.00;3.00;;;;;;;;5068071;28;8835;-77
2023/10/27 06:00:14;;;;;;;;;1.00;1.00;;;;;;;;5068696;28;9800;-76
2023/10/27 06:02:41;;;;;;;;;5.00;3.50;;;;;;;;5069505;28;8855;-76
2023/10/27 06:05:09;;;;;;;;;3.75;3.75;;;;;;;;5068604;28;8851;-78
2023/10/27 06:07:36;;;;;;;;;3.50;3.50;;;;;;;;5069759;28;8865;-76
2023/10/27 06:10:04;;;;;;;;;6.00;4.75;;;;;;;;5069451;28;9244;-79
2023/10/27 06:12:37;;;;;;;;;5.00;3.50;;;;;;;;5069504;28;8909;-80
2023/10/27 06:15:05;;;;;;;;;3.50;3.50;;;;;;;;5069521;28;8859;-78
2023/10/27 06:17:45;;;;;;;;;3.75;3.75;;;;;;;;5071001;28;8866;-77
2023/10/27 06:20:18;;;;;;;;;4.25;3.00;;;;;;;;5073110;28;8859;-77
2023/10/27 06:22:45;;;;;;;;;3.75;3.75;;;;;;;;5063181;28;8969;-76
2023/10/27 06:25:18;;;;;;;;;4.25;4.25;;;;;;;;5069822;28;9520;-77
2023/10/27 06:27:45;;;;;;;;;4.00;2.50;;;;;;;;5072433;28;8873;-77
2023/10/27 06:30:13;;;;;;;;;3.75;2.50;;;;;;;;5069688;28;8995;-77
2023/10/27 06:32:52;;;;;;;;;4.00;2.50;;;;;;;;5069014;28;8835;-79
2023/10/27 06:35:19;;;;;;;;;2.50;2.50;;;;;;;;5068977;28;8867;-77
2023/10/27 06:37:46;;;;;;;;;4.50;4.00;;;;;;;;5069907;28;8854;-77
2023/10/27 06:40:14;;;;;;;;;6.50;2.75;;;;;;;;5030553;28;8859;-75
2023/10/27 06:42:41;;;;;;;;;3.50;2.00;;;;;;;;5068365;28;8843;-75
2023/10/27 06:45:09;;;;;;;;;5.25;2.00;;;;;;;;5067097;28;9617;-74
2023/10/27 06:47:41;;;;;;;;;2.00;2.00;;;;;;;;5068639;28;8843;-74
2023/10/27 06:50:11;;;;;;;;;1.00;1.00;;;;;;;;5066805;28;8867;-73
2023/10/27 06:52:41;;;;;;;;;5.75;4.75;;;;;;;;5067491;28;8967;-73
2023/10/27 06:55:09;;;;;;;;;3.75;3.00;;;;;;;;5067848;28;8870;-73
2023/10/27 06:57:37;;;;;;;;;3.75;2.50;;;;;;;;5066670;28;8869;-75
2023/10/27 07:00:04;;;;;;;;;5.50;2.25;;;;;;;;5066933;28;8855;-75
2023/10/27 07:02:32;;;;;;;;;3.50;2.75;;;;;;;;5066979;28;8929;-73
2023/10/27 07:04:59;;;;;;;;;3.00;2.00;;;;;;;;5067942;28;8881;-73
2023/10/27 07:07:27;;;;;;;;;6.00;3.00;;;;;;;;5066296;28;8850;-73
2023/10/27 07:09:54;;;;;;;;;3.25;3.25;;;;;;;;5066885;28;8862;-75
2023/10/27 07:12:22;;;;;;;;;3.00;3.00;;;;;;;;5064654;28;8845;-75
2023/10/27 07:14:49;;;;;;;;;1.25;1.00;;;;;;;;5066457;28;8867;-75
2023/10/27 07:17:16;;;;;;;;;2.25;2.25;;;;;;;;5065845;28;9654;-77
2023/10/27 07:19:43;;;;;;;;;4.75;2.00;;;;;;;;5068056;28;8920;-75
2023/10/27 07:22:10;;;;;;;;;3.00;1.25;;;;;;;;5064966;28;8839;-77
2023/10/27 07:24:39;;;;;;;;;1.75;1.75;;;;;;;;5066371;28;8872;-77
2023/10/27 07:27:06;;;;;;;;;3.00;3.00;;;;;;;;5065256;28;8866;-76
2023/10/27 07:29:33;;;;;;;;;3.50;3.50;;;;;;;;5066009;28;9667;-76
2023/10/27 07:32:01;;;;;;;;;4.00;4.00;;;;;;;;5066351;28;8833;-76
2023/10/27 07:34:30;;;;;;;;;1.50;1.25;;;;;;;;5065960;28;8855;-77
2023/10/27 07:36:58;;;;;;;;;2.25;2.00;;;;;;;;5064799;28;8834;-73
2023/10/27 07:39:25;;;;;;;;;3.75;1.75;;;;;;;;5067724;28;9773;-76
2023/10/27 07:41:54;;;;;;;;;1.00;1.00;;;;;;;;5065767;28;9009;-75
2023/10/27 07:44:21;;;;;;;;;2.00;2.00;;;;;;;;5065313;28;9256;-75
2023/10/27 07:46:48;;;;;;;;;1.50;1.25;;;;;;;;5067120;28;8855;-74
2023/10/27 07:49:15;;;;;;;;;3.50;2.50;;;;;;;;5055548;28;8909;-75
2023/10/27 07:51:44;;;;;;;;;3.75;2.00;;;;;;;;5066722;28;8866;-75
2023/10/27 07:54:11;;;;;;;;;2.00;0.50;;;;;;;;5067445;28;8851;-75
2023/10/27 07:56:38;;;;;;;;;2.00;2.00;;;;;;;;5066012;28;8861;-73
2023/10/27 07:59:07;;;;;;;;;1.50;0.00;;;;;;;;5068425;28;8839;-74
2023/10/27 08:01:36;;;;;;;;;1.00;1.00;;;;;;;;5069028;28;8787;-76
2023/10/27 08:04:05;;;;;;;;;3.00;1.50;;;;;;;;5068612;28;8944;-76
2023/10/27 08:06:33;;;;;;;;;4.75;4.00;;;;;;;;5070475;28;8843;-73
2023/10/27 08:09:00;;;;;;;;;2.50;1.75;;;;;;;;5066923;28;8838;-75
2023/10/27 08:11:27;;;;;;;;;2.50;1.50;;;;;;;;5068429;28;8851;-76
2023/10/27 08:13:54;;;;;;;;;3.00;1.00;;;;;;;;5065988;28;8849;-74
2023/10/27 08:16:23;;;;;;;;;2.00;2.00;;;;;;;;5066646;28;8854;-78
2023/10/27 08:18:50;;;;;;;;;5.00;1.00;;;;;;;;5065068;28;8884;-77
2023/10/27 08:21:17;;;;;;;;;2.00;0.75;;;;;;;;5067325;28;8855;-78
2023/10/27 08:23:44;;;;;;;;;1.25;1.25;;;;;;;;5065566;28;8968;-77
2023/10/27 08:26:11;;;;;;;;;2.25;2.00;;;;;;;;5066943;28;8851;-76
2023/10/27 08:28:39;;;;;;;;;1.00;1.00;;;;;;;;5066661;28;8846;-77
2023/10/27 08:31:06;;;;;;;;;2.00;2.00;;;;;;;;5056964;28;8787;-77
2023/10/27 08:33:34;;;;;;;;;1.00;1.00;;;;;;;;5056489;28;8835;-77
2023/10/27 08:36:05;;;;;;;;;1.00;1.00;;;;;;;;5057678;28;9624;-76
2023/10/27 08:38:33;;;;;;;;;2.25;2.25;;;;;;;;5064221;28;8843;-76
2023/10/27 08:41:04;;;;;;;;;1.00;1.00;;;;;;;;5062708;28;8861;-78
2023/10/27 08:43:35;;;;;;;;;4.00;2.00;;;;;;;;5057991;28;8854;-76
2023/10/27 08:46:05;;;;;;;;;1.00;1.00;;;;;;;;5060235;28;8857;-78
2023/10/27 08:48:34;;;;;;;;;2.25;0.50;;;;;;;;5055052;28;8861;-77
2023/10/27 08:51:04;;;;;;;;;1.00;1.00;;;;;;;;5061718;28;8854;-78
2023/10/27 08:53:32;;;;;;;;;1.00;1.00;;;;;;;;5065650;28;9676;-75
2023/10/27 08:56:01;;;;;;;;;1.75;1.75;;;;;;;;5064827;28;8873;-79
2023/10/27 08:58:29;;;;;;;;;3.50;2.00;;;;;;;;5066969;28;8874;-78
2023/10/27 09:00:57;;;;;;;;;3.00;2.00;;;;;;;;5064741;28;8924;-78
2023/10/27 09:03:28;;;;;;;;;3.00;1.00;;;;;;;;5067007;28;8902;-76
2023/10/27 09:06:07;;;;;;;;;0.75;0.75;;;;;;;;5067063;28;8854;-78
2023/10/27 09:08:34;;;;;;;;;1.00;1.00;;;;;;;;5066619;28;8859;-77
2023/10/27 09:11:02;;;;;;;;;2.00;2.00;;;;;;;;5066257;28;8846;-76
2023/10/27 09:13:29;;;;;;;;;1.25;1.00;;;;;;;;5066846;28;8842;-77
2023/10/27 09:15:57;;;;;;;;;1.00;1.00;;;;;;;;5068454;28;8839;-78
2023/10/27 09:18:35;;;;;;;;;0.50;0.50;;;;;;;;5068502;28;8889;-77
2023/10/27 09:21:08;;;;;;;;;1.25;1.25;;;;;;;;5069997;28;8950;-77
2023/10/27 09:23:46;;;;;;;;;3.25;1.00;;;;;;;;5069133;28;8850;-76
2023/10/27 09:26:16;;;;;;;;;1.50;0.50;;;;;;;;5069581;28;9703;-76
2023/10/27 09:28:44;;;;;;;;;1.00;0.75;;;;;;;;5068005;28;8854;-77
2023/10/27 09:31:11;;;;;;;;;1.50;1.50;;;;;;;;5069201;28;8790;-77
2023/10/27 09:33:41;;;;;;;;;1.00;1.00;;;;;;;;5068791;28;8873;-75
2023/10/27 09:36:12;;;;;;;;;1.00;1.00;;;;;;;;5069433;28;9744;-76
2023/10/27 09:38:40;;;;;;;;;3.75;2.00;;;;;;;;5069907;28;8893;-76
2023/10/27 09:41:08;;;;;;;;;4.25;1.75;;;;;;;;5069064;28;8851;-76
2023/10/27 09:43:35;;;;;;;;;2.75;2.00;;;;;;;;5068079;28;8857;-77
2023/10/27 09:46:09;;;;;;;;;1.00;1.00;;;;;;;;5069664;28;8963;-75
2023/10/27 09:48:41;;;;;;;;;1.50;1.50;;;;;;;;5065460;28;8859;-76
2023/10/27 09:51:17;;;;;;;;;2.50;0.00;;;;;;;;5067516;28;8888;-76
2023/10/27 09:53:47;;;;;;;;;1.00;1.00;;;;;;;;5072765;28;8954;-76
2023/10/27 09:56:17;;;;;;;;;2.00;2.00;;;;;;;;5070575;28;8875;-76
2023/10/27 09:58:45;;;;;;;;;1.00;1.00;;;;;;;;5074149;28;8858;-76
2023/10/27 10:01:12;;;;;;;;;2.00;0.25;;;;;;;;5069050;28;8802;-76
2023/10/27 10:03:42;;;;;;;;;1.00;1.00;;;;;;;;5068732;28;8850;-77
2023/10/27 10:06:13;;;;;;;;;3.00;0.75;;;;;;;;5067814;28;8839;-80
2023/10/27 10:08:41;;;;;;;;;0.75;0.75;;;;;;;;5069420;28;8867;-77
2023/10/27 10:11:14;;;;;;;;;2.00;1.00;;;;;;;;5068732;28;8878;-77
2023/10/27 10:13:46;;;;;;;;;1.25;1.25;;;;;;;;5069169;28;8985;-78
2023/10/27 10:16:13;;;;;;;;;1.25;0.50;;;;;;;;5069170;28;8862;-78
2023/10/27 10:18:54;;;;;;;;;0.50;0.50;;;;;;;;5068059;28;8874;-79
2023/10/27 10:21:35;;;;;;;;;0.00;0.00;;;;;;;;5069394;28;8863;-79
2023/10/27 10:24:11;;;;;;;;;2.50;1.75;;;;;;;;5069323;28;8843;-78
2023/10/27 10:27:04;;;;;;;;;1.75;0.50;;;;;;;;5069696;28;8843;-78
2023/10/27 10:29:33;;;;;;;;;0.75;0.75;;;;;;;;5065835;28;8858;-80
2023/10/27 10:32:36;;;;;;;;;1.00;1.00;;;;;;;;5073202;28;8902;-82
2023/10/27 10:35:22;;;;;;;;;2.50;0.75;;;;;;;;5073048;28;8914;-80
2023/10/27 10:37:52;;;;;;;;;0.00;0.00;;;;;;;;5071882;28;8839;-79
2023/10/27 10:40:29;;;;;;;;;1.25;0.75;;;;;;;;5071036;28;8873;-77
2023/10/27 10:43:20;;;;;;;;;2.50;1.00;;;;;;;;5070320;28;8896;-79
2023/10/27 10:45:50;;;;;;;;;1.00;1.00;;;;;;;;5068932;28;8850;-78
2023/10/27 10:48:17;;;;;;;;;1.00;1.00;;;;;;;;5063685;28;8872;-79
2023/10/27 10:50:45;;;;;;;;;0.00;0.00;;;;;;;;5060939;28;8873;-78
2023/10/27 10:53:17;;;;;;;;;1.75;1.00;;;;;;;;5066239;28;8843;-79
2023/10/27 10:55:45;;;;;;;;;1.00;1.00;;;;;;;;5067632;28;8973;-81
2023/10/27 10:58:21;;;;;;;;;1.00;1.00;;;;;;;;5060729;28;8873;-81
2023/10/27 11:00:49;;;;;;;;;2.25;0.00;;;;;;;;5062369;28;8779;-82
2023/10/27 11:03:17;;;;;;;;;3.00;1.75;;;;;;;;5059933;28;8854;-79
2023/10/27 11:05:45;;;;;;;;;3.00;1.00;;;;;;;;5067791;28;8846;-76
2023/10/27 11:08:12;;;;;;;;;0.75;0.75;;;;;;;;5058996;28;9407;-74
2023/10/27 11:10:42;;;;;;;;;4.00;1.00;;;;;;;;5057974;28;8857;-76
2023/10/27 11:13:11;;;;;;;;;0.25;0.25;;;;;;;;5059470;28;8859;-74
2023/10/27 11:15:42;;;;;;;;;1.00;1.00;;;;;;;;5057047;28;8849;-79
2023/10/27 11:18:13;;;;;;;;;2.00;0.75;;;;;;;;5066050;28;9702;-78
2023/10/27 11:20:40;;;;;;;;;0.00;0.00;;;;;;;;5067028;28;8859;-76
2023/10/27 11:23:08;;;;;;;;;0.25;0.25;;;;;;;;5067739;28;8843;-76
2023/10/27 11:25:36;;;;;;;;;1.00;1.00;;;;;;;;5060428;28;8871;-75
2023/10/27 11:28:21;;;;;;;;;2.00;0.00;;;;;;;;5067778;28;8855;-74
2023/10/27 11:30:59;;;;;;;;;1.00;1.00;;;;;;;;5061686;28;8799;-75
2023/10/27 11:33:27;;;;;;;;;4.25;1.00;;;;;;;;5060529;28;8850;-75
2023/10/27 11:35:54;;;;;;;;;0.50;0.00;;;;;;;;5068231;28;8935;-76
2023/10/27 11:38:22;;;;;;;;;1.75;0.25;;;;;;;;5066788;28;8843;-76
2023/10/27 11:40:52;;;;;;;;;0.00;0.00;;;;;;;;5061938;28;8857;-78
2023/10/27 11:43:21;;;;;;;;;1.25;1.25;;;;;;;;5069422;28;8881;-76
2023/10/27 11:45:50;;;;;;;;;1.00;1.00;;;;;;;;5058885;28;9066;-76
2023/10/27 11:48:17;;;;;;;;;1.25;1.25;;;;;;;;5055527;28;8825;-76
2023/10/27 11:50:44;;;;;;;;;1.00;1.00;;;;;;;;5059523;28;8877;-76
2023/10/27 11:53:11;;;;;;;;;0.50;0.50;;;;;;;;5066648;28;8866;-79
2023/10/27 11:55:39;;;;;;;;;1.00;1.00;;;;;;;;5067276;28;8885;-79
2023/10/27 11:58:09;;;;;;;;;1.00;1.00;;;;;;;;5067207;28;8997;-77
2023/10/27 12:00:38;;;;;;;;;0.50;0.50;;;;;;;;5066717;28;8894;-78
2023/10/27 12:03:07;;;;;;;;;0.00;0.00;;;;;;;;5066538;28;8901;-79
2023/10/27 12:05:35;;;;;;;;;1.00;1.00;;;;;;;;5067558;28;8923;-78
2023/10/27 12:08:02;;;;;;;;;2.75;1.00;;;;;;;;5067122;28;8865;-76
2023/10/27 12:10:32;;;;;;;;;0.00;0.00;;;;;;;;5067223;28;8851;-77
2023/10/27 12:12:59;;;;;;;;;0.75;0.75;;;;;;;;5056219;28;8863;-77
2023/10/27 12:15:26;;;;;;;;;1.00;1.00;;;;;;;;5067059;28;8920;-78
2023/10/27 12:17:55;;;;;;;;;1.00;1.00;;;;;;;;5066995;28;8901;-77
2023/10/27 12:20:22;;;;;;;;;0.25;0.00;;;;;;;;5066491;28;8823;-80
2023/10/27 12:22:49;;;;;;;;;1.00;1.00;;;;;;;;5066914;28;8873;-77
2023/10/27 12:25:17;;;;;;;;;1.00;1.00;;;;;;;;5066674;28;8859;-77
2023/10/27 12:27:44;;;;;;;;;0.50;0.50;;;;;;;;5066385;28;9020;-77
2023/10/27 12:30:12;;;;;;;;;1.00;1.00;;;;;;;;5065597;28;9643;-78
2023/10/27 12:32:42;;;;;;;;;0.00;0.00;;;;;;;;5064383;28;9534;-76
2023/10/27 12:35:14;;;;;;;;;1.00;1.00;;;;;;;;5062377;28;8897;-76
2023/10/27 12:37:42;;;;;;;;;1.20;0.00;;;;;;;;5066980;28;8843;-76
2023/10/27 12:40:12;;;;;;;;;2.00;1.00;;;;;;;;5068404;28;8988;-77
2023/10/27 12:42:40;;;;;;;;;2.00;0.00;;;;;;;;5067111;28;8881;-76
2023/10/27 12:45:08;;;;;;;;;0.80;0.80;;;;;;;;5066418;28;8901;-77
2023/10/27 12:47:36;;;;;;;;;0.00;0.00;;;;;;;;5065406;28;8847;-75
2023/10/27 12:50:05;;;;;;;;;0.00;0.00;;;;;;;;5054866;28;8936;-76
2023/10/27 12:52:34;;;;;;;;;0.60;0.60;;;;;;;;5070370;28;9625;-76
2023/10/27 12:55:01;;;;;;;;;1.00;1.00;;;;;;;;5069497;28;9678;-76
2023/10/27 12:57:28;;;;;;;;;1.00;1.00;;;;;;;;5069708;28;8866;-78
2023/10/27 12:59:56;;;;;;;;;1.00;0.80;;;;;;;;5057808;28;8855;-76
2023/10/27 13:02:23;;;;;;;;;1.80;0.00;;;;;;;;5069026;28;8883;-76
2023/10/27 13:04:51;;;;;;;;;0.00;0.00;;;;;;;;5069942;28;9652;-77
2023/10/27 13:07:19;;;;;;;;;0.60;0.00;;;;;;;;5069516;28;8854;-76
2023/10/27 13:09:48;;;;;;;;;0.60;0.00;;;;;;;;5070259;28;8859;-76
2023/10/27 13:12:15;;;;;;;;;1.00;1.00;;;;;;;;5068666;28;8851;-76
2023/10/27 13:14:43;;;;;;;;;0.00;0.00;;;;;;;;5069655;28;8872;-77
2023/10/27 13:17:10;;;;;;;;;1.00;1.00;;;;;;;;5069574;28;8845;-76
2023/10/27 13:19:37;;;;;;;;;2.50;1.00;;;;;;;;5073455;28;8889;-76
2023/10/27 13:22:05;;;;;;;;;2.75;0.50;;;;;;;;5071435;28;8898;-76
2023/10/27 13:24:33;;;;;;;;;0.00;0.00;;;;;;;;5072524;28;8847;-76
2023/10/27 13:27:02;;;;;;;;;1.25;1.00;;;;;;;;5070739;28;8862;-77
2023/10/27 13:29:29;;;;;;;;;1.00;1.00;;;;;;;;5073846;28;8997;-76
2023/10/27 13:31:56;;;;;;;;;2.25;1.00;;;;;;;;5069088;28;8807;-77
2023/10/27 13:34:24;;;;;;;;;0.20;0.20;;;;;;;;5069220;28;8997;-77
2023/10/27 13:36:51;;;;;;;;;2.00;0.50;;;;;;;;5070064;28;8847;-77
2023/10/27 13:39:19;;;;;;;;;0.25;0.25;;;;;;;;5070840;28;8879;-76
2023/10/27 13:41:46;;;;;;;;;1.20;1.00;;;;;;;;5068548;28;8831;-75
2023/10/27 13:44:14;;;;;;;;;2.60;2.00;;;;;;;;5068373;28;8877;-76
2023/10/27 13:46:42;;;;;;;;;1.40;0.00;;;;;;;;5069183;28;8839;-76
2023/10/27 13:49:11;;;;;;;;;1.00;1.00;;;;;;;;5057129;28;8857;-77
2023/10/27 13:51:39;;;;;;;;;0.20;0.00;;;;;;;;5069085;28;8874;-76
2023/10/27 13:54:09;;;;;;;;;1.00;1.00;;;;;;;;5068084;28;8893;-76
2023/10/27 13:56:36;;;;;;;;;1.60;1.00;;;;;;;;5068298;28;8854;-75
2023/10/27 13:59:07;;;;;;;;;1.00;1.00;;;;;;;;5068133;28;8894;-75
2023/10/27 14:01:36;;;;;;;;;1.00;0.80;;;;;;;;5061093;28;8927;-75
2023/10/27 14:04:03;;;;;;;;;0.00;0.00;;;;;;;;5063389;28;8847;-75
2023/10/27 14:06:32;;;;;;;;;1.50;0.00;;;;;;;;5058154;28;8863;-75
2023/10/27 14:08:59;;;;;;;;;3.50;1.00;;;;;;;;5065923;28;8969;-75
2023/10/27 14:11:27;;;;;;;;;3.50;2.00;;;;;;;;5068159;28;8925;-76
2023/10/27 14:13:54;;;;;;;;;1.00;1.00;;;;;;;;5066903;28;8894;-75
2023/10/27 14:16:21;;;;;;;;;0.40;0.40;;;;;;;;5067950;28;8839;-76
2023/10/27 14:18:51;;;;;;;;;2.00;2.00;;;;;;;;5067096;28;8883;-76
2023/10/27 14:21:18;;;;;;;;;1.00;1.00;;;;;;;;5069422;28;8857;-75
2023/10/27 14:23:46;;;;;;;;;2.00;2.00;;;;;;;;5068951;28;8869;-75
2023/10/27 14:26:14;;;;;;;;;4.25;1.00;;;;;;;;5067563;28;8936;-75
2023/10/27 14:28:42;;;;;;;;;1.75;1.75;;;;;;;;5068805;28;8835;-76
2023/10/27 14:31:10;;;;;;;;;2.25;1.00;;;;;;;;5068448;28;8779;-75
2023/10/27 14:33:38;;;;;;;;;1.50;1.50;;;;;;;;5067066;28;8869;-76
2023/10/27 14:36:08;;;;;;;;;3.00;1.00;;;;;;;;5069043;28;8959;-76
2023/10/27 14:38:36;;;;;;;;;3.00;1.00;;;;;;;;5067625;28;8985;-77
2023/10/27 14:41:03;;;;;;;;;4.25;2.50;;;;;;;;5068057;28;8865;-76
2023/10/27 14:43:31;;;;;;;;;5.00;3.00;;;;;;;;5068364;28;8843;-77
2023/10/27 14:46:00;;;;;;;;;2.00;2.00;;;;;;;;5068508;28;9724;-74
2023/10/27 14:48:28;;;;;;;;;2.00;2.00;;;;;;;;5062609;28;8996;-77
2023/10/27 14:50:59;;;;;;;;;3.75;3.75;;;;;;;;5062063;28;8862;-75
2023/10/27 14:53:28;;;;;;;;;2.25;2.25;;;;;;;;5068481;28;8867;-76
2023/10/27 14:55:58;;;;;;;;;2.50;2.50;;;;;;;;5068302;28;8842;-75
2023/10/27 14:58:26;;;;;;;;;4.00;2.00;;;;;;;;5056998;28;8862;-76
2023/10/27 15:00:53;;;;;;;;;1.00;0.75;;;;;;;;5066182;28;8780;-72
2023/10/27 15:03:20;;;;;;;;;1.00;1.00;;;;;;;;5069207;28;8884;-73